createdAt,value
2023-05-06T00:00:06.634Z,16.58
2023-05-06T00:02:33.890Z,18.48
2023-05-06T00:05:01.094Z,13.98
2023-05-06T00:07:28.194Z,13.18
2023-05-06T00:09:55.355Z,14.90
2023-05-06T00:12:22.585Z,14.30
2023-05-06T00:14:49.747Z,12.90
2023-05-06T00:17:16.880Z,12.63
2023-05-06T00:19:44.468Z,12.98
2023-05-06T00:22:11.653Z,11.43
2023-05-06T00:24:38.816Z,11.63
2023-05-06T00:27:05.988Z,12.18
2023-05-06T00:29:33.204Z,12.48
2023-05-06T00:32:01.015Z,12.45
2023-05-06T00:34:28.195Z,13.73
2023-05-06T00:36:55.436Z,13.45
2023-05-06T00:39:22.600Z,13.55
2023-05-06T00:41:49.773Z,14.05
2023-05-06T00:44:16.975Z,13.60
2023-05-06T00:46:44.302Z,13.27
2023-05-06T00:49:13.339Z,13.35
2023-05-06T00:51:40.648Z,14.07
2023-05-06T00:54:07.794Z,12.68
2023-05-06T00:56:34.970Z,13.02
2023-05-06T00:59:02.201Z,13.10
2023-05-06T01:01:31.511Z,11.88
2023-05-06T01:03:58.889Z,12.18
2023-05-06T01:06:38.421Z,12.70
2023-05-06T01:09:12.928Z,11.90
2023-05-06T01:11:51.571Z,12.65
2023-05-06T01:14:25.606Z,13.25
2023-05-06T01:16:55.112Z,12.98
2023-05-06T01:19:51.205Z,12.48
2023-05-06T01:22:19.183Z,13.20
2023-05-06T01:24:46.911Z,12.93
2023-05-06T01:27:14.688Z,12.55
2023-05-06T01:29:42.984Z,12.68
2023-05-06T01:32:13.224Z,13.32
2023-05-06T01:35:00.602Z,14.23
2023-05-06T01:37:32.753Z,14.10
2023-05-06T01:40:01.165Z,13.98
2023-05-06T01:42:28.494Z,14.02
2023-05-06T01:44:56.260Z,14.98
2023-05-06T01:47:24.042Z,14.32
2023-05-06T01:49:51.251Z,14.23
2023-05-06T01:52:18.459Z,14.75
2023-05-06T01:54:45.624Z,16.27
2023-05-06T01:57:12.886Z,16.30
2023-05-06T01:59:40.290Z,15.40
2023-05-06T02:02:08.217Z,14.52
2023-05-06T02:04:35.360Z,13.68
2023-05-06T02:07:03.005Z,13.35
2023-05-06T02:09:30.155Z,14.07
2023-05-06T02:11:57.299Z,13.85
2023-05-06T02:14:24.775Z,14.32
2023-05-06T02:16:51.971Z,14.80
2023-05-06T02:19:19.275Z,13.20
2023-05-06T02:21:46.455Z,15.10
2023-05-06T02:24:13.609Z,14.55
2023-05-06T02:26:40.838Z,15.05
2023-05-06T02:29:08.050Z,14.73
2023-05-06T02:31:35.230Z,15.65
2023-05-06T02:34:02.403Z,18.10
2023-05-06T02:36:29.672Z,14.95
2023-05-06T02:38:56.849Z,16.75
2023-05-06T02:41:24.045Z,15.43
2023-05-06T02:43:51.224Z,14.02
2023-05-06T02:46:18.420Z,15.45
2023-05-06T02:48:46.299Z,15.23
2023-05-06T02:51:13.762Z,15.98
2023-05-06T02:53:40.956Z,15.60
2023-05-06T02:56:08.212Z,15.23
2023-05-06T02:58:35.333Z,14.85
2023-05-06T03:01:02.582Z,15.55
2023-05-06T03:03:29.810Z,14.23
2023-05-06T03:05:56.942Z,13.20
2023-05-06T03:08:24.330Z,11.82
2023-05-06T03:10:51.702Z,11.73
2023-05-06T03:13:19.012Z,11.88
2023-05-06T03:15:46.229Z,12.00
2023-05-06T03:18:13.360Z,11.65
2023-05-06T03:20:40.512Z,11.82
2023-05-06T03:23:07.682Z,12.35
2023-05-06T03:25:35.141Z,13.52
2023-05-06T03:28:02.352Z,11.77
2023-05-06T03:30:29.718Z,12.27
2023-05-06T03:32:57.206Z,14.52
2023-05-06T03:35:24.512Z,15.48
2023-05-06T03:37:51.709Z,16.60
2023-05-06T03:40:18.833Z,17.05
2023-05-06T03:42:46.236Z,15.48
2023-05-06T03:45:13.488Z,15.25
2023-05-06T03:47:40.728Z,15.07
2023-05-06T03:50:08.369Z,15.98
2023-05-06T03:52:35.546Z,14.50
2023-05-06T03:55:03.204Z,13.60
2023-05-06T03:57:30.452Z,13.23
2023-05-06T03:59:57.569Z,13.63
2023-05-06T04:02:25.061Z,13.90
2023-05-06T04:04:52.320Z,21.70
2023-05-06T04:07:19.445Z,18.67
2023-05-06T04:09:46.563Z,15.13
2023-05-06T04:12:13.679Z,14.98
2023-05-06T04:14:40.884Z,17.25
2023-05-06T04:17:08.039Z,16.77
2023-05-06T04:19:35.187Z,15.77
2023-05-06T04:22:02.414Z,15.10
2023-05-06T04:24:31.574Z,17.42
2023-05-06T04:26:58.774Z,19.33
2023-05-06T04:29:26.396Z,21.50
2023-05-06T04:31:54.251Z,16.00
2023-05-06T04:34:21.540Z,17.15
2023-05-06T04:36:49.564Z,17.15
2023-05-06T04:39:18.165Z,16.17
2023-05-06T04:41:45.342Z,15.30
2023-05-06T04:44:12.771Z,15.05
2023-05-06T04:46:39.996Z,15.68
2023-05-06T04:49:07.235Z,13.95
2023-05-06T04:51:34.392Z,13.80
2023-05-06T04:54:02.048Z,15.80
2023-05-06T04:56:29.284Z,15.63
2023-05-06T04:58:56.495Z,16.33
2023-05-06T05:01:24.062Z,18.38
2023-05-06T05:03:51.296Z,17.52
2023-05-06T05:06:18.438Z,16.40
2023-05-06T05:08:45.771Z,13.32
2023-05-06T05:11:13.748Z,11.07
2023-05-06T05:13:40.919Z,9.60
2023-05-06T05:16:08.303Z,8.27
2023-05-06T05:18:35.431Z,7.35
2023-05-06T05:21:02.577Z,6.35
2023-05-06T05:23:29.787Z,5.38
2023-05-06T05:25:56.969Z,5.90
2023-05-06T05:28:24.138Z,5.35
2023-05-06T05:30:51.299Z,4.82
2023-05-06T05:33:18.600Z,4.20
2023-05-06T05:35:45.860Z,4.30
2023-05-06T05:38:14.328Z,3.90
2023-05-06T05:40:42.444Z,4.03
2023-05-06T05:43:09.650Z,3.92
2023-05-06T05:45:36.892Z,4.53
2023-05-06T05:48:04.198Z,5.18
2023-05-06T05:50:31.380Z,4.57
2023-05-06T05:52:58.544Z,4.45
2023-05-06T05:55:25.660Z,4.05
2023-05-06T05:57:52.815Z,3.88
2023-05-06T06:00:20.331Z,3.42
2023-05-06T06:02:47.539Z,2.58
2023-05-06T06:05:14.735Z,4.72
2023-05-06T06:07:42.009Z,4.60
2023-05-06T06:10:09.198Z,3.38
2023-05-06T06:12:36.536Z,3.38
2023-05-06T06:15:03.919Z,3.58
2023-05-06T06:17:31.341Z,3.50
2023-05-06T06:19:59.142Z,3.30
2023-05-06T06:22:26.743Z,3.47
2023-05-06T06:24:53.908Z,3.60
2023-05-06T06:27:21.358Z,3.72
2023-05-06T06:29:49.884Z,3.90
2023-05-06T06:32:17.139Z,16.98
2023-05-06T06:34:44.346Z,31.05
2023-05-06T06:37:11.780Z,25.85
2023-05-06T06:39:39.014Z,11.65
2023-05-06T06:42:07.144Z,11.32
2023-05-06T06:44:35.074Z,9.15
2023-05-06T06:47:03.086Z,5.38
2023-05-06T06:49:31.211Z,11.73
2023-05-06T06:51:58.386Z,4.75
2023-05-06T06:54:25.782Z,6.60
2023-05-06T06:56:57.304Z,3.60
2023-05-06T06:59:24.571Z,3.60
2023-05-06T07:01:51.736Z,2.60
2023-05-06T07:04:19.100Z,3.03
2023-05-06T07:06:46.420Z,5.45
2023-05-06T07:09:13.643Z,2.45
2023-05-06T07:11:40.927Z,2.40
2023-05-06T07:14:08.303Z,2.58
2023-05-06T07:16:35.489Z,4.38
2023-05-06T07:19:02.647Z,2.63
2023-05-06T07:21:32.290Z,2.25
2023-05-06T07:24:01.159Z,2.22
2023-05-06T07:26:28.351Z,1.90
2023-05-06T07:28:58.157Z,2.80
2023-05-06T07:31:25.360Z,1.85
2023-05-06T07:33:52.742Z,1.92
2023-05-06T07:36:19.907Z,2.00
2023-05-06T07:38:47.108Z,1.85
2023-05-06T07:41:14.252Z,2.30
2023-05-06T07:43:41.420Z,1.95
2023-05-06T07:46:08.817Z,1.10
2023-05-06T07:48:36.082Z,0.80
2023-05-06T07:51:04.006Z,0.90
2023-05-06T07:53:31.183Z,0.75
2023-05-06T07:56:02.197Z,0.85
2023-05-06T07:58:31.561Z,0.90
2023-05-06T08:00:59.043Z,0.70
2023-05-06T08:03:26.709Z,0.73
2023-05-06T08:05:55.241Z,0.80
2023-05-06T08:08:23.258Z,1.10
2023-05-06T08:10:50.451Z,0.80
2023-05-06T08:13:17.838Z,1.08
2023-05-06T08:15:45.309Z,0.93
2023-05-06T08:18:21.830Z,0.88
2023-05-06T08:20:49.826Z,0.90
2023-05-06T08:23:17.002Z,0.50
2023-05-06T08:25:44.177Z,0.70
2023-05-06T08:28:11.346Z,0.50
2023-05-06T08:30:38.569Z,0.80
2023-05-06T08:33:05.849Z,0.82
2023-05-06T08:35:33.247Z,0.70
2023-05-06T08:38:00.509Z,0.93
2023-05-06T08:40:29.388Z,0.70
2023-05-06T08:42:58.109Z,0.60
2023-05-06T08:45:27.339Z,1.20
2023-05-06T08:47:55.934Z,0.70
2023-05-06T08:50:23.228Z,0.50
2023-05-06T08:52:51.783Z,0.80
2023-05-06T08:55:19.741Z,0.40
2023-05-06T08:57:46.955Z,0.50
2023-05-06T09:00:15.100Z,0.60
2023-05-06T09:02:43.536Z,0.50
2023-05-06T09:05:12.391Z,0.80
2023-05-06T09:07:39.869Z,0.30
2023-05-06T09:10:08.116Z,0.70
2023-05-06T09:12:37.976Z,0.50
2023-05-06T09:15:05.448Z,0.40
2023-05-06T09:17:33.036Z,0.50
2023-05-06T09:20:00.507Z,0.60
2023-05-06T09:22:28.847Z,0.50
2023-05-06T09:25:07.619Z,0.50
2023-05-06T09:27:36.957Z,0.70
2023-05-06T09:30:08.330Z,0.60
2023-05-06T09:32:38.293Z,0.50
2023-05-06T09:35:07.498Z,0.40
2023-05-06T09:37:34.878Z,0.50
2023-05-06T09:40:02.085Z,0.45
2023-05-06T09:42:29.981Z,0.50
2023-05-06T09:45:08.068Z,0.80
2023-05-06T09:47:35.646Z,0.90
2023-05-06T09:50:03.472Z,0.60
2023-05-06T09:52:31.458Z,0.43
2023-05-06T09:54:59.010Z,0.68
2023-05-06T09:57:26.836Z,0.60
2023-05-06T09:59:54.836Z,0.60
2023-05-06T10:02:23.637Z,0.55
2023-05-06T10:04:51.826Z,0.40
2023-05-06T10:07:22.840Z,0.50
2023-05-06T10:09:53.454Z,0.80
2023-05-06T10:12:20.835Z,0.45
2023-05-06T10:14:48.118Z,0.45
2023-05-06T10:17:16.080Z,0.40
2023-05-06T10:19:45.492Z,0.40
2023-05-06T10:22:20.177Z,0.40
2023-05-06T10:24:53.395Z,0.40
2023-05-06T10:27:22.644Z,0.52
2023-05-06T10:29:50.091Z,0.30
2023-05-06T10:32:18.169Z,0.50
2023-05-06T10:34:54.182Z,0.30
2023-05-06T10:37:25.876Z,0.30
2023-05-06T10:39:54.455Z,0.20
2023-05-06T10:42:21.649Z,0.30
2023-05-06T10:45:04.237Z,0.20
2023-05-06T10:47:50.829Z,0.40
2023-05-06T10:50:28.042Z,0.30
2023-05-06T10:52:56.112Z,0.30
2023-05-06T10:55:26.605Z,0.40
2023-05-06T10:57:57.854Z,0.40
2023-05-06T11:00:25.140Z,0.40
2023-05-06T11:02:58.031Z,0.60
2023-05-06T11:05:25.826Z,0.22
2023-05-06T11:07:53.281Z,0.50
2023-05-06T11:10:40.846Z,0.52
2023-05-06T11:13:24.582Z,0.57
2023-05-06T11:18:26.375Z,0.40
2023-05-06T11:21:02.749Z,0.30
2023-05-06T11:23:42.578Z,0.50
2023-05-06T11:26:10.506Z,0.50
2023-05-06T11:28:37.679Z,0.75
2023-05-06T11:31:05.077Z,0.80
2023-05-06T11:33:34.017Z,0.75
2023-05-06T11:36:03.340Z,1.42
2023-05-06T11:38:49.920Z,0.47
2023-05-06T11:41:17.830Z,0.60
2023-05-06T11:43:50.275Z,0.43
2023-05-06T11:46:19.165Z,0.47
2023-05-06T11:48:46.708Z,0.70
2023-05-06T11:51:14.139Z,0.60
2023-05-06T11:53:41.416Z,0.57
2023-05-06T11:56:08.896Z,0.50
2023-05-06T11:58:36.162Z,1.08
2023-05-06T12:01:04.687Z,40.53
2023-05-06T12:03:32.838Z,0.50
2023-05-06T12:06:00.571Z,0.75
2023-05-06T12:08:32.596Z,0.50
2023-05-06T12:11:03.851Z,0.40
2023-05-06T12:13:31.340Z,0.50
2023-05-06T12:15:59.633Z,0.80
2023-05-06T12:18:27.003Z,0.40
2023-05-06T12:20:54.808Z,0.40
2023-05-06T12:23:22.131Z,1.23
2023-05-06T12:26:01.118Z,0.25
2023-05-06T12:28:28.482Z,0.35
2023-05-06T12:30:55.706Z,0.40
2023-05-06T12:33:22.920Z,0.57
2023-05-06T12:35:54.782Z,0.65
2023-05-06T12:38:21.941Z,0.80
2023-05-06T12:40:55.587Z,0.73
2023-05-06T12:43:33.443Z,0.80
2023-05-06T12:46:07.149Z,0.30
2023-05-06T12:48:34.491Z,0.60
2023-05-06T12:51:01.965Z,0.47
2023-05-06T12:53:33.301Z,1.30
2023-05-06T12:56:00.490Z,2.35
2023-05-06T12:58:27.782Z,0.77
2023-05-06T13:00:54.996Z,0.50
2023-05-06T13:03:22.221Z,1.10
2023-05-06T13:05:51.776Z,1.00
2023-05-06T13:08:19.191Z,0.95
2023-05-06T13:10:46.801Z,0.65
2023-05-06T13:13:13.990Z,3.38
2023-05-06T13:15:41.274Z,0.40
2023-05-06T13:18:09.440Z,1.00
2023-05-06T13:20:36.744Z,0.65
2023-05-06T13:23:04.801Z,0.60
2023-05-06T13:25:31.937Z,0.35
2023-05-06T13:27:59.078Z,0.63
2023-05-06T13:30:26.577Z,0.50
2023-05-06T13:32:53.820Z,0.65
2023-05-06T13:35:21.155Z,0.40
2023-05-06T13:37:48.353Z,1.60
2023-05-06T13:40:15.653Z,5.47
2023-05-06T13:42:42.814Z,2.10
2023-05-06T13:45:10.279Z,3.85
2023-05-06T13:47:37.424Z,0.70
2023-05-06T13:50:05.916Z,1.42
2023-05-06T13:52:33.201Z,0.60
2023-05-06T13:55:00.420Z,0.40
2023-05-06T13:57:27.581Z,0.40
2023-05-06T13:59:54.942Z,7.35
2023-05-06T14:02:22.130Z,0.50
2023-05-06T14:04:49.364Z,1.00
2023-05-06T14:07:16.711Z,0.70
2023-05-06T14:09:43.987Z,0.60
2023-05-06T14:12:11.227Z,3.47
2023-05-06T14:14:38.535Z,3.08
2023-05-06T14:17:05.677Z,0.88
2023-05-06T14:19:32.911Z,0.60
2023-05-06T14:22:00.049Z,0.40
2023-05-06T14:24:28.146Z,0.70
2023-05-06T14:26:55.498Z,0.73
2023-05-06T14:29:22.771Z,0.95
2023-05-06T14:31:49.991Z,0.80
2023-05-06T14:34:17.177Z,1.38
2023-05-06T14:36:44.629Z,0.50
2023-05-06T14:39:11.847Z,0.70
2023-05-06T14:41:38.997Z,2.33
2023-05-06T14:44:06.232Z,0.40
2023-05-06T14:46:33.514Z,1.02
2023-05-06T14:49:00.818Z,0.80
2023-05-06T14:51:28.061Z,1.48
2023-05-06T14:53:55.350Z,0.50
2023-05-06T14:56:23.123Z,0.80
2023-05-06T14:58:50.351Z,0.70
2023-05-06T15:01:17.611Z,0.50
2023-05-06T15:03:45.308Z,0.60
2023-05-06T15:06:12.662Z,0.30
2023-05-06T15:08:39.872Z,0.40
2023-05-06T15:11:07.105Z,0.38
2023-05-06T15:13:34.280Z,0.30
2023-05-06T15:16:01.742Z,0.55
2023-05-06T15:18:29.219Z,0.50
2023-05-06T15:20:58.731Z,0.60
2023-05-06T15:23:25.916Z,0.32
2023-05-06T15:25:53.026Z,0.40
2023-05-06T15:28:21.780Z,0.40
2023-05-06T15:30:50.531Z,0.20
2023-05-06T15:33:17.732Z,0.40
2023-05-06T15:35:45.404Z,0.30
2023-05-06T15:38:12.811Z,0.45
2023-05-06T15:40:40.775Z,0.30
2023-05-06T15:43:12.303Z,0.40
2023-05-06T15:45:40.998Z,0.40
2023-05-06T15:48:08.902Z,0.30
2023-05-06T15:50:39.377Z,0.30
2023-05-06T15:53:07.050Z,0.40
2023-05-06T15:55:45.134Z,0.38
2023-05-06T15:58:17.116Z,0.30
2023-05-06T16:00:45.458Z,0.30
2023-05-06T16:03:13.455Z,0.20
2023-05-06T16:05:41.513Z,0.30
2023-05-06T16:08:14.269Z,0.40
2023-05-06T16:10:41.445Z,0.30
2023-05-06T16:13:08.633Z,0.30
2023-05-06T16:15:36.531Z,0.30
2023-05-06T16:18:04.053Z,0.40
2023-05-06T16:20:32.797Z,0.38
2023-05-06T16:23:00.253Z,0.50
2023-05-06T16:25:27.427Z,0.50
2023-05-06T16:27:54.672Z,0.65
2023-05-06T16:30:21.940Z,0.60
2023-05-06T16:32:53.816Z,0.50
2023-05-06T16:35:21.090Z,0.47
2023-05-06T16:37:49.483Z,0.60
2023-05-06T16:40:18.772Z,0.40
2023-05-06T16:42:46.840Z,0.40
2023-05-06T16:45:17.881Z,0.30
2023-05-06T16:47:46.422Z,0.70
2023-05-06T16:50:16.398Z,0.60
2023-05-06T16:52:46.089Z,0.65
2023-05-06T16:55:13.582Z,0.50
2023-05-06T16:57:42.989Z,0.60
2023-05-06T17:00:12.124Z,0.60
2023-05-06T17:02:39.915Z,0.60
2023-05-06T17:05:10.316Z,0.60
2023-05-06T17:07:37.783Z,0.70
2023-05-06T17:10:05.458Z,0.90
2023-05-06T17:12:33.137Z,0.60
2023-05-06T17:15:00.426Z,0.70
2023-05-06T17:17:29.220Z,0.70
2023-05-06T17:19:57.568Z,0.70
2023-05-06T17:22:26.479Z,0.85
2023-05-06T17:24:53.871Z,0.70
2023-05-06T17:27:21.046Z,0.73
2023-05-06T17:29:48.239Z,0.60
2023-05-06T17:32:15.972Z,0.60
2023-05-06T17:34:43.149Z,0.70
2023-05-06T17:37:10.553Z,0.65
2023-05-06T17:39:38.423Z,0.77
2023-05-06T17:42:05.669Z,0.80
2023-05-06T17:44:35.570Z,0.77
2023-05-06T17:47:02.718Z,0.60
2023-05-06T17:49:29.979Z,0.80
2023-05-06T17:52:03.989Z,0.95
2023-05-06T17:54:32.930Z,0.68
2023-05-06T17:57:02.059Z,0.68
2023-05-06T17:59:29.505Z,1.00
2023-05-06T18:01:57.260Z,0.90
2023-05-06T18:04:24.631Z,0.85
2023-05-06T18:06:53.785Z,0.75
2023-05-06T18:09:21.386Z,0.90
2023-05-06T18:11:49.196Z,1.20
2023-05-06T18:14:16.719Z,0.80
2023-05-06T18:16:44.299Z,1.00
2023-05-06T18:19:13.479Z,1.10
2023-05-06T18:21:41.407Z,0.90
2023-05-06T18:24:15.895Z,1.00
2023-05-06T18:26:45.701Z,1.48
2023-05-06T18:29:13.237Z,1.30
2023-05-06T18:31:40.427Z,1.80
2023-05-06T18:34:07.647Z,1.73
2023-05-06T18:36:36.524Z,1.60
2023-05-06T18:39:12.181Z,1.48
2023-05-06T18:41:39.642Z,1.33
2023-05-06T18:44:07.087Z,1.33
2023-05-06T18:46:34.296Z,0.80
2023-05-06T18:49:04.151Z,1.27
2023-05-06T18:51:32.219Z,1.00
2023-05-06T18:54:01.213Z,1.50
2023-05-06T18:56:29.460Z,1.35
2023-05-06T18:58:57.104Z,1.33
2023-05-06T19:01:25.084Z,1.20
2023-05-06T19:03:54.282Z,1.27
2023-05-06T19:06:21.443Z,1.20
2023-05-06T19:08:49.264Z,1.30
2023-05-06T19:11:18.180Z,1.25
2023-05-06T19:13:46.639Z,1.73
2023-05-06T19:16:15.230Z,2.17
2023-05-06T19:18:42.841Z,1.90
2023-05-06T19:21:11.086Z,2.17
2023-05-06T19:23:38.285Z,2.05
2023-05-06T19:26:12.282Z,2.50
2023-05-06T19:28:44.651Z,3.85
2023-05-06T19:31:12.395Z,2.30
2023-05-06T19:33:41.160Z,3.17
2023-05-06T19:36:09.493Z,3.65
2023-05-06T19:38:36.976Z,3.55
2023-05-06T19:41:04.508Z,3.05
2023-05-06T19:43:31.964Z,3.80
2023-05-06T19:45:59.330Z,4.63
2023-05-06T19:48:26.890Z,4.25
2023-05-06T19:50:54.176Z,4.40
2023-05-06T19:53:22.808Z,3.88
2023-05-06T19:55:50.423Z,3.95
2023-05-06T19:58:19.086Z,5.72
2023-05-06T20:00:47.948Z,5.43
2023-05-06T20:05:58.011Z,5.03
2023-05-06T20:08:25.212Z,5.05
2023-05-06T20:10:52.398Z,5.10
2023-05-06T20:13:20.042Z,4.22
2023-05-06T20:15:47.625Z,4.38
2023-05-06T20:18:15.001Z,4.10
2023-05-06T20:20:47.498Z,3.70
2023-05-06T20:23:16.045Z,5.00
2023-05-06T20:25:43.237Z,4.93
2023-05-06T20:28:10.689Z,4.70
2023-05-06T20:30:39.120Z,4.45
2023-05-06T20:33:09.526Z,3.92
2023-05-06T20:35:38.512Z,4.07
2023-05-06T20:40:52.421Z,4.07
2023-05-06T20:43:19.863Z,4.43
2023-05-06T20:45:51.885Z,4.65
2023-05-06T20:48:20.901Z,5.43
2023-05-06T20:50:48.378Z,5.40
2023-05-06T20:53:15.585Z,5.15
2023-05-06T20:55:46.454Z,5.90
2023-05-06T20:58:13.606Z,6.00
2023-05-06T21:00:40.768Z,6.05
2023-05-06T21:05:53.925Z,5.90
2023-05-06T21:08:21.389Z,7.22
2023-05-06T21:10:48.536Z,6.30
2023-05-06T21:13:15.959Z,6.95
2023-05-06T21:15:44.344Z,5.00
2023-05-06T21:18:21.407Z,5.43
2023-05-06T21:20:50.156Z,6.68
2023-05-06T21:23:19.362Z,7.32
2023-05-06T21:25:48.386Z,5.68
2023-05-06T21:28:17.801Z,5.75
2023-05-06T21:30:46.762Z,6.95
2023-05-06T21:33:16.184Z,5.55
2023-05-06T21:35:43.361Z,7.22
2023-05-06T21:38:12.069Z,7.28
2023-05-06T21:40:39.544Z,6.72
2023-05-06T21:43:06.772Z,7.07
2023-05-06T21:45:34.167Z,7.18
2023-05-06T21:48:04.126Z,7.78
2023-05-06T21:50:31.562Z,7.63
2023-05-06T21:53:01.342Z,9.18
2023-05-06T21:55:28.499Z,11.27
2023-05-06T21:57:55.683Z,12.48
2023-05-06T22:00:22.983Z,13.10
2023-05-06T22:02:50.408Z,13.57
2023-05-06T22:05:17.727Z,15.60
2023-05-06T22:07:45.021Z,15.65
2023-05-06T22:10:13.654Z,16.08
2023-05-06T22:12:41.252Z,16.00
2023-05-06T22:15:09.410Z,15.13
2023-05-06T22:17:38.014Z,15.43
2023-05-06T22:20:06.057Z,20.38
2023-05-06T22:22:33.512Z,24.52
2023-05-06T22:25:01.072Z,24.90
2023-05-06T22:27:28.206Z,24.25
2023-05-06T22:29:55.409Z,23.58
2023-05-06T22:32:22.773Z,23.50
2023-05-06T22:34:50.057Z,23.48
2023-05-06T22:37:17.434Z,22.70
2023-05-06T22:39:44.719Z,24.10
2023-05-06T22:42:11.915Z,22.08
2023-05-06T22:44:39.042Z,22.90
2023-05-06T22:47:06.293Z,22.52
2023-05-06T22:49:33.460Z,20.98
2023-05-06T22:52:01.476Z,22.38
2023-05-06T22:54:29.007Z,22.65
2023-05-06T22:56:56.197Z,19.63
2023-05-06T22:59:23.650Z,19.15
2023-05-06T23:01:50.855Z,20.42
2023-05-06T23:04:18.062Z,20.88
2023-05-06T23:06:45.209Z,23.20
2023-05-06T23:09:13.527Z,22.92
2023-05-06T23:11:40.942Z,21.75
2023-05-06T23:14:08.461Z,22.10
2023-05-06T23:16:35.884Z,22.08
2023-05-06T23:19:03.116Z,22.23
2023-05-06T23:21:30.264Z,22.85
2023-05-06T23:23:57.443Z,20.92
2023-05-06T23:26:24.591Z,22.45
2023-05-06T23:28:51.761Z,21.60
2023-05-06T23:31:19.094Z,21.83
2023-05-06T23:33:46.234Z,22.63
2023-05-06T23:36:13.379Z,22.73
2023-05-06T23:38:40.555Z,21.70
2023-05-06T23:41:07.756Z,23.17
2023-05-06T23:43:34.912Z,22.45
2023-05-06T23:46:02.202Z,22.02
2023-05-06T23:48:29.392Z,21.20
2023-05-06T23:50:56.815Z,21.67
2023-05-06T23:53:23.993Z,22.48
2023-05-06T23:55:51.154Z,21.58
2023-05-06T23:58:18.281Z,21.23
